Washington, DC (20002)

4:39 PM EST on February 07, 2016 (GMT -0500)
Eckington Pl, NE | | Change Station
CLOSE
Current Station
Personal Weather Station
Location: Washington, DC
Elevation: 90 ft
Nearby Weather Stations

Elev 90 ft 38.91 °N, 77.01 °W | Updated 52 seconds ago

Mostly Cloudy
Mostly Cloudy
45.2 °F
Feels Like 43 °F
N
4.0
Wind Variable Wind from NNE
Gusts 9.0 mph

Today
High -- | Low -- °F
--% Chance of Precip.
Yesterday
High -- | Low -- °F
Precip. -- in
Pressure 30.02 in
Visibility 10.0 miles
Clouds Overcast 18000 ft
Windchill 43 °F
Dew Point 20 °F
Humidity 36%
Rainfall Not available.
Snow Depth Not available.
7:08 AM 5:35 PM
Waning Crescent, 1% visible
METAR KDCA 072052Z 05009KT 10SM OVC180 07/M06 A3002 RMK AO2 SLP164 T00721056 56029
Pressure 30.02 in
Visibility 10.0 miles
Clouds Overcast 18000 ft
Windchill 43 °F
Dew Point 20 °F
Humidity 36%
Rainfall Not available.
Snow Depth Not available.
7:08 AM 5:35 PM
Waning Crescent, 1% visible
METAR KDCA 072052Z 05009KT 10SM OVC180 07/M06 A3002 RMK AO2 SLP164 T00721056 56029

10-Day Weather Forecast

Almanac

Astronomy

Feb. 07, 2016 Rise Set
Actual Time
Civil Twilight
Nautical Twilight
Astronomical Twilight
Moon
Length of Visible Light
Length of Day
Tomorrow will be .
, % of the Moon is Illuminated

Today's Extremes

State Highs State Lows

Community

WunderPhotos

Upload Photos

1,891,301 photos uploaded!

WunderBlog® & News

Nearby

Air Quality

  Air Quality AQ Index Pollutant
Not available.

Snow Depth

Station Depth Elevation

Earthquake Activity

City Distance Mag. Time & Date
Minimum magnitude displayed is 2.5.

Coastal Water Temperatures

Place Temperature

Stations

Nearby Weather Stations

Station Location Temp. Windchill Dew Point Humidity Wind Precip. Elev Updated Type
                   

Watches & Warnings

There are currently no watches in effect.